Mount Pleasant Airport, Falkland Islands

3:25 AM -03 on April 26, 2017 (GMT -0300)
Mount Pleasant | | Change Station

Elev 243 ft 51.82 °S, 58.45 °W | Updated 35 minutes ago

Rain
Rain
45 °F
Feels Like 41 °F
N
7
Wind Variable Wind from NNE

Today
High -- | Low -- °F
--% Chance of Precip.
Yesterday
High -- | Low -- °F
Precip. -- in
Pressure 29.24 in
Visibility 6.2 miles
Clouds Few 500 ft
Scattered Clouds 700 ft
Mostly Cloudy 1500 ft
Windchill 41 °F
Dew Point 45 °F
Humidity 100%
Rainfall 0.00 in
Snow Depth Not available.
7:57 AM 5:44 PM
Waning Crescent, 0% visible
METAR EGYP 260550Z 03006KT 9999 RA FEW005 SCT007 BKN015 07/07 Q0990 GRN TEMPO 4000 -DZ SCT005 YLO1
Pressure 29.24 in
Visibility 6.2 miles
Clouds Few 500 ft
Scattered Clouds 700 ft
Mostly Cloudy 1500 ft
Windchill 41 °F
Dew Point 45 °F
Humidity 100%
Rainfall 0.00 in
Snow Depth Not available.
7:57 AM 5:44 PM
Waning Crescent, 0% visible
METAR EGYP 260550Z 03006KT 9999 RA FEW005 SCT007 BKN015 07/07 Q0990 GRN TEMPO 4000 -DZ SCT005 YLO1

Get Severe Weather Alerts

Thanks for signing up!

Be on the lookout for a verification email in your inbox.

You'll start receiving the daily forecast at 8 AM.

×

10-Day Weather Forecast

No radar image for this location.
×

Almanac

Astronomy

Apr. 26, 2017 Rise Set
Actual Time
Civil Twilight
Nautical Twilight
Astronomical Twilight
Moon
Length of Visible Light
Length of Day
Tomorrow will be .
, % of the Moon is Illuminated

Today's Extremes

Country Highs Country Lows

Community

WunderPhotos

WunderBlog® & News

Nearby

Air Quality

  Air Quality AQ Index Pollutant
Not available.

Snow Depth

Station Depth Elevation

Earthquake Activity

City Distance Mag. Time & Date
Minimum magnitude displayed is 2.5.

Coastal Water Temperatures

Place Temperature

Stations

Nearby Weather Stations

Station Location Temp. Windchill Dew Point Humidity Wind Precip. Elev Updated Type